sensor_id;sensor_type;location;lat;lon;timestamp;P1;durP1;ratioP1;P2;durP2;ratioP2
63664;SDS011;49820;33.966;73.390;2023-05-14T01:51:53;2.53;;;1.35;;
63664;SDS011;49820;33.966;73.390;2023-05-14T02:08:35;2.90;;;1.10;;
63664;SDS011;49820;33.966;73.390;2023-05-14T02:21:51;3.05;;;1.17;;
63664;SDS011;49820;33.966;73.390;2023-05-14T02:35:49;2.90;;;1.20;;
63664;SDS011;49820;33.966;73.390;2023-05-14T02:38:28;2.28;;;1.10;;
63664;SDS011;49820;33.966;73.390;2023-05-14T02:41:06;3.47;;;1.20;;
63664;SDS011;49820;33.966;73.390;2023-05-14T02:43:45;2.47;;;1.10;;
63664;SDS011;49820;33.966;73.390;2023-05-14T02:58:03;2.80;;;0.95;;
63664;SDS011;49820;33.966;73.390;2023-05-14T03:00:43;2.45;;;1.00;;
63664;SDS011;49820;33.966;73.390;2023-05-14T03:03:23;2.75;;;1.02;;
63664;SDS011;49820;33.966;73.390;2023-05-14T03:06:03;3.08;;;1.10;;
63664;SDS011;49820;33.966;73.390;2023-05-14T03:08:42;4.78;;;1.10;;
63664;SDS011;49820;33.966;73.390;2023-05-14T03:11:21;3.63;;;1.10;;
63664;SDS011;49820;33.966;73.390;2023-05-14T03:14:01;2.45;;;1.20;;
63664;SDS011;49820;33.966;73.390;2023-05-14T03:16:39;3.13;;;1.15;;
63664;SDS011;49820;33.966;73.390;2023-05-14T03:19:20;4.00;;;1.42;;
63664;SDS011;49820;33.966;73.390;2023-05-14T03:21:58;3.40;;;1.33;;
63664;SDS011;49820;33.966;73.390;2023-05-14T03:24:38;3.23;;;1.30;;
63664;SDS011;49820;33.966;73.390;2023-05-14T03:27:18;3.67;;;1.63;;
63664;SDS011;49820;33.966;73.390;2023-05-14T03:29:58;2.50;;;1.20;;
63664;SDS011;49820;33.966;73.390;2023-05-14T03:32:38;2.45;;;1.10;;
63664;SDS011;49820;33.966;73.390;2023-05-14T03:35:18;3.10;;;1.40;;
63664;SDS011;49820;33.966;73.390;2023-05-14T03:37:57;3.55;;;1.50;;
63664;SDS011;49820;33.966;73.390;2023-05-14T03:40:36;3.67;;;1.50;;
63664;SDS011;49820;33.966;73.390;2023-05-14T03:43:15;4.60;;;1.70;;
63664;SDS011;49820;33.966;73.390;2023-05-14T03:45:55;5.00;;;1.90;;
63664;SDS011;49820;33.966;73.390;2023-05-14T03:48:34;4.32;;;1.92;;
63664;SDS011;49820;33.966;73.390;2023-05-14T03:51:33;3.17;;;1.50;;
63664;SDS011;49820;33.966;73.390;2023-05-14T03:54:12;3.58;;;1.63;;
63664;SDS011;49820;33.966;73.390;2023-05-14T03:56:51;2.67;;;1.33;;
63664;SDS011;49820;33.966;73.390;2023-05-14T03:59:30;4.27;;;1.53;;
63664;SDS011;49820;33.966;73.390;2023-05-14T04:02:27;3.17;;;1.30;;
63664;SDS011;49820;33.966;73.390;2023-05-14T04:05:07;2.83;;;1.20;;
63664;SDS011;49820;33.966;73.390;2023-05-14T04:07:47;2.83;;;1.40;;
63664;SDS011;49820;33.966;73.390;2023-05-14T04:10:27;3.60;;;1.30;;
63664;SDS011;49820;33.966;73.390;2023-05-14T04:13:07;2.70;;;1.23;;
63664;SDS011;49820;33.966;73.390;2023-05-14T04:15:47;2.13;;;1.10;;
63664;SDS011;49820;33.966;73.390;2023-05-14T04:18:26;2.67;;;1.20;;
63664;SDS011;49820;33.966;73.390;2023-05-14T04:21:06;2.70;;;1.20;;
63664;SDS011;49820;33.966;73.390;2023-05-14T04:23:47;3.22;;;1.50;;
63664;SDS011;49820;33.966;73.390;2023-05-14T04:26:28;3.80;;;1.40;;
63664;SDS011;49820;33.966;73.390;2023-05-14T04:29:09;3.10;;;1.38;;
63664;SDS011;49820;33.966;73.390;2023-05-14T04:32:10;3.33;;;1.23;;
63664;SDS011;49820;33.966;73.390;2023-05-14T04:34:51;3.97;;;1.42;;
63664;SDS011;49820;33.966;73.390;2023-05-14T04:37:32;3.17;;;1.15;;
63664;SDS011;49820;33.966;73.390;2023-05-14T04:40:29;2.35;;;1.20;;
63664;SDS011;49820;33.966;73.390;2023-05-14T04:43:09;4.47;;;1.40;;
63664;SDS011;49820;33.966;73.390;2023-05-14T04:45:49;3.42;;;1.13;;
63664;SDS011;49820;33.966;73.390;2023-05-14T04:48:29;3.27;;;0.90;;
63664;SDS011;49820;33.966;73.390;2023-05-14T04:51:26;3.70;;;1.33;;
63664;SDS011;49820;33.966;73.390;2023-05-14T04:54:06;3.40;;;1.27;;
63664;SDS011;49820;33.966;73.390;2023-05-14T04:56:47;4.13;;;1.30;;
63664;SDS011;49820;33.966;73.390;2023-05-14T04:59:30;2.25;;;1.17;;
63664;SDS011;49820;33.966;73.390;2023-05-14T05:02:10;3.75;;;1.10;;
63664;SDS011;49820;33.966;73.390;2023-05-14T05:04:49;3.00;;;1.35;;
63664;SDS011;49820;33.966;73.390;2023-05-14T05:07:30;2.97;;;1.20;;
63664;SDS011;49820;33.966;73.390;2023-05-14T05:10:47;3.53;;;1.40;;
63664;SDS011;49820;33.966;73.390;2023-05-14T05:13:26;3.13;;;1.07;;
63664;SDS011;49820;33.966;73.390;2023-05-14T05:16:27;4.25;;;1.30;;
63664;SDS011;49820;33.966;73.390;2023-05-14T05:19:06;3.85;;;1.60;;
63664;SDS011;49820;33.966;73.390;2023-05-14T05:21:46;3.78;;;1.50;;
63664;SDS011;49820;33.966;73.390;2023-05-14T05:24:28;2.80;;;1.50;;
63664;SDS011;49820;33.966;73.390;2023-05-14T05:27:07;3.65;;;1.17;;
63664;SDS011;49820;33.966;73.390;2023-05-14T05:29:47;4.75;;;1.20;;
63664;SDS011;49820;33.966;73.390;2023-05-14T05:32:44;5.40;;;1.23;;
63664;SDS011;49820;33.966;73.390;2023-05-14T05:35:25;4.47;;;1.20;;
63664;SDS011;49820;33.966;73.390;2023-05-14T05:38:06;2.50;;;1.23;;
63664;SDS011;49820;33.966;73.390;2023-05-14T05:40:45;3.20;;;1.50;;
63664;SDS011;49820;33.966;73.390;2023-05-14T05:43:27;3.72;;;1.50;;
63664;SDS011;49820;33.966;73.390;2023-05-14T05:46:09;3.45;;;1.27;;
63664;SDS011;49820;33.966;73.390;2023-05-14T05:48:49;3.80;;;1.90;;
63664;SDS011;49820;33.966;73.390;2023-05-14T05:51:30;4.57;;;1.60;;
63664;SDS011;49820;33.966;73.390;2023-05-14T05:54:11;3.25;;;1.35;;
63664;SDS011;49820;33.966;73.390;2023-05-14T05:57:08;4.30;;;1.30;;
63664;SDS011;49820;33.966;73.390;2023-05-14T05:59:49;3.40;;;1.50;;
63664;SDS011;49820;33.966;73.390;2023-05-14T06:02:39;4.55;;;1.30;;
63664;SDS011;49820;33.966;73.390;2023-05-14T06:05:20;2.88;;;1.30;;
63664;SDS011;49820;33.966;73.390;2023-05-14T06:08:19;4.38;;;1.17;;
63664;SDS011;49820;33.966;73.390;2023-05-14T06:10:59;5.17;;;1.50;;
63664;SDS011;49820;33.966;73.390;2023-05-14T06:13:58;5.27;;;1.37;;
63664;SDS011;49820;33.966;73.390;2023-05-14T06:16:38;5.40;;;1.40;;
63664;SDS011;49820;33.966;73.390;2023-05-14T06:19:20;3.50;;;1.38;;
63664;SDS011;49820;33.966;73.390;2023-05-14T06:22:01;3.65;;;1.40;;
63664;SDS011;49820;33.966;73.390;2023-05-14T06:25:01;3.45;;;1.30;;
63664;SDS011;49820;33.966;73.390;2023-05-14T06:28:01;2.97;;;1.42;;
63664;SDS011;49820;33.966;73.390;2023-05-14T06:30:58;5.55;;;1.42;;
63664;SDS011;49820;33.966;73.390;2023-05-14T06:33:40;4.57;;;1.70;;
63664;SDS011;49820;33.966;73.390;2023-05-14T06:36:21;3.67;;;1.52;;
63664;SDS011;49820;33.966;73.390;2023-05-14T06:39:03;2.65;;;1.25;;
63664;SDS011;49820;33.966;73.390;2023-05-14T06:41:45;4.77;;;1.50;;
63664;SDS011;49820;33.966;73.390;2023-05-14T06:44:29;4.10;;;1.55;;
63664;SDS011;49820;33.966;73.390;2023-05-14T06:47:11;3.85;;;1.88;;
63664;SDS011;49820;33.966;73.390;2023-05-14T06:49:51;4.03;;;1.50;;
63664;SDS011;49820;33.966;73.390;2023-05-14T06:52:31;4.45;;;1.50;;
63664;SDS011;49820;33.966;73.390;2023-05-14T06:55:13;4.25;;;1.50;;
63664;SDS011;49820;33.966;73.390;2023-05-14T06:57:53;7.60;;;1.98;;
63664;SDS011;49820;33.966;73.390;2023-05-14T07:00:33;3.05;;;1.50;;
63664;SDS011;49820;33.966;73.390;2023-05-14T07:03:13;6.30;;;1.67;;
63664;SDS011;49820;33.966;73.390;2023-05-14T07:05:51;4.25;;;1.55;;
63664;SDS011;49820;33.966;73.390;2023-05-14T07:08:34;4.65;;;1.77;;
63664;SDS011;49820;33.966;73.390;2023-05-14T07:11:13;4.55;;;1.40;;
63664;SDS011;49820;33.966;73.390;2023-05-14T07:13:54;4.40;;;1.60;;
63664;SDS011;49820;33.966;73.390;2023-05-14T07:16:52;5.05;;;1.75;;
63664;SDS011;49820;33.966;73.390;2023-05-14T07:20:10;4.13;;;1.60;;
63664;SDS011;49820;33.966;73.390;2023-05-14T07:22:52;3.53;;;1.40;;
63664;SDS011;49820;33.966;73.390;2023-05-14T07:25:37;4.00;;;1.63;;
63664;SDS011;49820;33.966;73.390;2023-05-14T07:28:21;4.03;;;1.70;;
63664;SDS011;49820;33.966;73.390;2023-05-14T07:31:19;5.40;;;1.90;;
63664;SDS011;49820;33.966;73.390;2023-05-14T07:34:17;4.80;;;1.70;;
63664;SDS011;49820;33.966;73.390;2023-05-14T07:36:59;4.27;;;1.63;;
63664;SDS011;49820;33.966;73.390;2023-05-14T07:39:42;4.30;;;1.45;;
63664;SDS011;49820;33.966;73.390;2023-05-14T07:42:41;4.25;;;1.63;;
63664;SDS011;49820;33.966;73.390;2023-05-14T07:45:21;5.77;;;1.73;;
63664;SDS011;49820;33.966;73.390;2023-05-14T07:48:04;5.18;;;1.70;;
63664;SDS011;49820;33.966;73.390;2023-05-14T07:50:47;4.90;;;1.70;;
63664;SDS011;49820;33.966;73.390;2023-05-14T07:53:29;4.25;;;1.67;;
63664;SDS011;49820;33.966;73.390;2023-05-14T07:56:09;3.97;;;1.60;;
63664;SDS011;49820;33.966;73.390;2023-05-14T07:58:50;5.82;;;1.95;;
63664;SDS011;49820;33.966;73.390;2023-05-14T08:01:48;4.97;;;1.80;;
63664;SDS011;49820;33.966;73.390;2023-05-14T08:05:05;5.37;;;1.87;;
63664;SDS011;49820;33.966;73.390;2023-05-14T08:07:47;4.85;;;1.70;;
63664;SDS011;49820;33.966;73.390;2023-05-14T08:10:28;5.57;;;2.00;;
63664;SDS011;49820;33.966;73.390;2023-05-14T08:13:10;5.43;;;2.10;;
63664;SDS011;49820;33.966;73.390;2023-05-14T08:15:52;5.88;;;1.60;;
63664;SDS011;49820;33.966;73.390;2023-05-14T08:18:50;4.13;;;1.40;;
63664;SDS011;49820;33.966;73.390;2023-05-14T08:21:32;3.67;;;1.60;;
63664;SDS011;49820;33.966;73.390;2023-05-14T08:24:32;6.30;;;1.88;;
63664;SDS011;49820;33.966;73.390;2023-05-14T08:27:32;5.90;;;2.03;;
63664;SDS011;49820;33.966;73.390;2023-05-14T08:30:14;5.70;;;1.70;;
63664;SDS011;49820;33.966;73.390;2023-05-14T08:32:56;5.17;;;2.13;;
63664;SDS011;49820;33.966;73.390;2023-05-14T08:35:38;8.40;;;2.00;;
63664;SDS011;49820;33.966;73.390;2023-05-14T08:38:19;4.70;;;2.00;;
63664;SDS011;49820;33.966;73.390;2023-05-14T08:41:02;4.05;;;1.80;;
63664;SDS011;49820;33.966;73.390;2023-05-14T08:47:17;5.20;;;1.90;;
63664;SDS011;49820;33.966;73.390;2023-05-14T08:50:02;6.45;;;1.60;;
63664;SDS011;49820;33.966;73.390;2023-05-14T08:53:02;5.35;;;1.77;;
63664;SDS011;49820;33.966;73.390;2023-05-14T08:55:43;4.38;;;1.77;;
63664;SDS011;49820;33.966;73.390;2023-05-14T08:58:25;4.38;;;1.42;;
63664;SDS011;49820;33.966;73.390;2023-05-14T09:01:06;5.50;;;1.70;;
63664;SDS011;49820;33.966;73.390;2023-05-14T09:03:48;5.00;;;1.48;;
63664;SDS011;49820;33.966;73.390;2023-05-14T09:06:31;4.32;;;1.70;;
63664;SDS011;49820;33.966;73.390;2023-05-14T09:09:14;6.78;;;2.10;;
63664;SDS011;49820;33.966;73.390;2023-05-14T09:11:55;7.03;;;1.60;;
63664;SDS011;49820;33.966;73.390;2023-05-14T09:14:38;5.32;;;1.60;;
63664;SDS011;49820;33.966;73.390;2023-05-14T09:17:39;5.78;;;1.92;;
63664;SDS011;49820;33.966;73.390;2023-05-14T09:20:56;5.80;;;1.80;;
63664;SDS011;49820;33.966;73.390;2023-05-14T09:23:57;9.15;;;2.03;;
63664;SDS011;49820;33.966;73.390;2023-05-14T09:26:38;4.80;;;2.03;;
63664;SDS011;49820;33.966;73.390;2023-05-14T09:29:22;5.60;;;1.60;;
63664;SDS011;49820;33.966;73.390;2023-05-14T09:32:05;5.65;;;1.80;;
63664;SDS011;49820;33.966;73.390;2023-05-14T09:34:49;9.32;;;2.05;;
63664;SDS011;49820;33.966;73.390;2023-05-14T09:37:40;5.28;;;1.70;;
63664;SDS011;49820;33.966;73.390;2023-05-14T09:40:22;4.23;;;1.77;;
63664;SDS011;49820;33.966;73.390;2023-05-14T09:43:04;4.77;;;1.37;;
63664;SDS011;49820;33.966;73.390;2023-05-14T09:45:46;6.72;;;1.88;;
63664;SDS011;49820;33.966;73.390;2023-05-14T09:48:49;3.88;;;1.60;;
63664;SDS011;49820;33.966;73.390;2023-05-14T09:51:47;5.65;;;1.90;;
63664;SDS011;49820;33.966;73.390;2023-05-14T09:54:51;5.72;;;2.10;;
63664;SDS011;49820;33.966;73.390;2023-05-14T09:57:33;8.27;;;2.08;;
63664;SDS011;49820;33.966;73.390;2023-05-14T10:00:33;6.68;;;2.17;;
63664;SDS011;49820;33.966;73.390;2023-05-14T10:03:17;5.90;;;1.73;;
63664;SDS011;49820;33.966;73.390;2023-05-14T10:06:01;6.85;;;1.92;;
63664;SDS011;49820;33.966;73.390;2023-05-14T10:08:47;4.53;;;1.67;;
63664;SDS011;49820;33.966;73.390;2023-05-14T10:11:33;5.88;;;1.80;;
63664;SDS011;49820;33.966;73.390;2023-05-14T10:14:20;5.50;;;1.90;;
63664;SDS011;49820;33.966;73.390;2023-05-14T10:17:25;6.18;;;1.80;;
63664;SDS011;49820;33.966;73.390;2023-05-14T10:20:14;3.00;;;1.40;;
63664;SDS011;49820;33.966;73.390;2023-05-14T10:22:58;3.78;;;1.70;;
63664;SDS011;49820;33.966;73.390;2023-05-14T10:25:57;5.20;;;2.00;;
63664;SDS011;49820;33.966;73.390;2023-05-14T10:28:57;6.32;;;2.20;;
63664;SDS011;49820;33.966;73.390;2023-05-14T10:31:53;7.72;;;2.17;;
63664;SDS011;49820;33.966;73.390;2023-05-14T10:34:36;6.78;;;1.90;;
63664;SDS011;49820;33.966;73.390;2023-05-14T10:37:26;6.20;;;1.80;;
63664;SDS011;49820;33.966;73.390;2023-05-14T10:40:28;6.10;;;1.83;;
63664;SDS011;49820;33.966;73.390;2023-05-14T10:43:12;6.57;;;2.00;;
63664;SDS011;49820;33.966;73.390;2023-05-14T10:46:13;5.38;;;1.70;;
63664;SDS011;49820;33.966;73.390;2023-05-14T10:48:54;7.00;;;1.77;;
63664;SDS011;49820;33.966;73.390;2023-05-14T10:51:39;6.60;;;1.95;;
63664;SDS011;49820;33.966;73.390;2023-05-14T10:54:38;2.75;;;1.48;;
63664;SDS011;49820;33.966;73.390;2023-05-14T10:57:21;9.00;;;2.30;;
63664;SDS011;49820;33.966;73.390;2023-05-14T11:00:05;5.95;;;2.10;;
63664;SDS011;49820;33.966;73.390;2023-05-14T11:03:06;6.55;;;2.03;;
63664;SDS011;49820;33.966;73.390;2023-05-14T11:05:50;8.23;;;2.13;;
63664;SDS011;49820;33.966;73.390;2023-05-14T11:08:34;7.10;;;1.85;;
63664;SDS011;49820;33.966;73.390;2023-05-14T11:11:17;5.97;;;1.80;;
63664;SDS011;49820;33.966;73.390;2023-05-14T11:13:57;6.35;;;1.90;;
63664;SDS011;49820;33.966;73.390;2023-05-14T11:16:41;4.47;;;1.77;;
63664;SDS011;49820;33.966;73.390;2023-05-14T11:19:43;6.90;;;1.88;;
63664;SDS011;49820;33.966;73.390;2023-05-14T11:22:24;9.55;;;1.80;;
63664;SDS011;49820;33.966;73.390;2023-05-14T11:25:23;9.02;;;2.10;;
63664;SDS011;49820;33.966;73.390;2023-05-14T11:28:07;7.85;;;2.30;;
63664;SDS011;49820;33.966;73.390;2023-05-14T11:30:49;6.93;;;2.20;;
63664;SDS011;49820;33.966;73.390;2023-05-14T11:33:48;6.85;;;1.98;;
63664;SDS011;49820;33.966;73.390;2023-05-14T11:36:31;6.50;;;2.00;;
63664;SDS011;49820;33.966;73.390;2023-05-14T11:39:18;6.63;;;1.73;;
63664;SDS011;49820;33.966;73.390;2023-05-14T11:42:03;6.20;;;2.15;;
63664;SDS011;49820;33.966;73.390;2023-05-14T11:44:56;6.32;;;2.15;;
63664;SDS011;49820;33.966;73.390;2023-05-14T11:47:41;5.77;;;2.27;;
63664;SDS011;49820;33.966;73.390;2023-05-14T11:50:23;6.47;;;2.28;;
63664;SDS011;49820;33.966;73.390;2023-05-14T11:53:29;6.30;;;2.55;;
63664;SDS011;49820;33.966;73.390;2023-05-14T11:56:28;6.50;;;2.22;;
63664;SDS011;49820;33.966;73.390;2023-05-14T11:59:18;10.18;;;2.30;;
63664;SDS011;49820;33.966;73.390;2023-05-14T12:02:00;6.80;;;2.70;;
63664;SDS011;49820;33.966;73.390;2023-05-14T12:04:49;6.53;;;2.10;;
63664;SDS011;49820;33.966;73.390;2023-05-14T12:07:34;6.80;;;1.98;;
63664;SDS011;49820;33.966;73.390;2023-05-14T12:10:16;6.65;;;2.40;;
63664;SDS011;49820;33.966;73.390;2023-05-14T12:12:58;5.50;;;2.30;;
63664;SDS011;49820;33.966;73.390;2023-05-14T12:15:43;7.22;;;2.33;;
63664;SDS011;49820;33.966;73.390;2023-05-14T12:18:26;5.35;;;2.20;;
63664;SDS011;49820;33.966;73.390;2023-05-14T12:21:10;7.30;;;2.80;;
63664;SDS011;49820;33.966;73.390;2023-05-14T12:23:58;8.30;;;2.78;;
63664;SDS011;49820;33.966;73.390;2023-05-14T12:26:43;8.50;;;3.40;;
63664;SDS011;49820;33.966;73.390;2023-05-14T12:29:27;7.20;;;2.70;;
63664;SDS011;49820;33.966;73.390;2023-05-14T12:32:13;8.95;;;2.15;;
63664;SDS011;49820;33.966;73.390;2023-05-14T12:35:06;8.73;;;2.17;;
63664;SDS011;49820;33.966;73.390;2023-05-14T12:38:31;6.32;;;2.45;;
63664;SDS011;49820;33.966;73.390;2023-05-14T12:41:19;6.25;;;1.90;;
63664;SDS011;49820;33.966;73.390;2023-05-14T12:44:19;8.48;;;2.05;;
63664;SDS011;49820;33.966;73.390;2023-05-14T12:47:00;6.35;;;1.65;;
63664;SDS011;49820;33.966;73.390;2023-05-14T12:49:40;6.38;;;2.15;;
63664;SDS011;49820;33.966;73.390;2023-05-14T12:52:21;7.78;;;1.75;;
63664;SDS011;49820;33.966;73.390;2023-05-14T12:55:04;6.45;;;1.50;;
63664;SDS011;49820;33.966;73.390;2023-05-14T12:57:45;6.55;;;1.65;;
63664;SDS011;49820;33.966;73.390;2023-05-14T13:00:25;4.65;;;1.85;;
63664;SDS011;49820;33.966;73.390;2023-05-14T13:03:06;6.50;;;1.63;;
63664;SDS011;49820;33.966;73.390;2023-05-14T13:05:45;6.35;;;1.75;;
63664;SDS011;49820;33.966;73.390;2023-05-14T13:08:26;9.43;;;2.00;;
63664;SDS011;49820;33.966;73.390;2023-05-14T13:11:05;3.83;;;1.37;;
63664;SDS011;49820;33.966;73.390;2023-05-14T13:13:46;4.45;;;1.50;;
63664;SDS011;49820;33.966;73.390;2023-05-14T13:16:26;6.55;;;1.90;;
63664;SDS011;49820;33.966;73.390;2023-05-14T13:19:43;9.17;;;2.40;;
63664;SDS011;49820;33.966;73.390;2023-05-14T13:22:24;8.23;;;2.80;;
63664;SDS011;49820;33.966;73.390;2023-05-14T13:25:05;5.93;;;1.90;;
63664;SDS011;49820;33.966;73.390;2023-05-14T13:27:46;5.00;;;1.50;;
63664;SDS011;49820;33.966;73.390;2023-05-14T13:30:30;4.47;;;1.50;;
63664;SDS011;49820;33.966;73.390;2023-05-14T13:33:10;6.65;;;1.80;;
63664;SDS011;49820;33.966;73.390;2023-05-14T13:35:50;4.50;;;1.70;;
63664;SDS011;49820;33.966;73.390;2023-05-14T13:38:31;3.30;;;1.40;;
63664;SDS011;49820;33.966;73.390;2023-05-14T13:41:12;7.03;;;1.98;;
63664;SDS011;49820;33.966;73.390;2023-05-14T13:43:52;3.83;;;1.65;;
63664;SDS011;49820;33.966;73.390;2023-05-14T13:46:31;5.80;;;2.07;;
63664;SDS011;49820;33.966;73.390;2023-05-14T13:49:11;5.75;;;1.65;;
63664;SDS011;49820;33.966;73.390;2023-05-14T13:51:41;5.05;;;1.60;;
63664;SDS011;49820;33.966;73.390;2023-05-14T13:54:11;5.00;;;1.55;;
63664;SDS011;49820;33.966;73.390;2023-05-14T13:56:41;4.03;;;1.48;;
63664;SDS011;49820;33.966;73.390;2023-05-14T13:59:11;7.68;;;1.40;;
63664;SDS011;49820;33.966;73.390;2023-05-14T14:01:41;3.85;;;1.30;;
63664;SDS011;49820;33.966;73.390;2023-05-14T14:04:10;2.85;;;1.20;;
63664;SDS011;49820;33.966;73.390;2023-05-14T14:06:43;5.63;;;1.52;;
63664;SDS011;49820;33.966;73.390;2023-05-14T14:09:13;3.92;;;1.50;;
63664;SDS011;49820;33.966;73.390;2023-05-14T14:11:42;5.70;;;1.70;;
63664;SDS011;49820;33.966;73.390;2023-05-14T14:14:12;5.28;;;2.00;;
63664;SDS011;49820;33.966;73.390;2023-05-14T14:16:42;7.35;;;2.17;;
63664;SDS011;49820;33.966;73.390;2023-05-14T14:19:12;7.10;;;1.77;;
